sensor_id;sensor_type;location;lat;lon;timestamp;pressure;altitude;pressure_sealevel;temperature;humidity
65394;BME280;52002;49.760;6.512;2023-08-06T00:01:49;98946.80;;;15.58;77.34
65394;BME280;52002;49.760;6.512;2023-08-06T00:04:14;98946.80;;;15.58;77.42
65394;BME280;52002;49.760;6.512;2023-08-06T00:06:40;98945.22;;;15.58;77.45
65394;BME280;52002;49.760;6.512;2023-08-06T00:09:05;98942.27;;;15.57;77.38
65394;BME280;52002;49.760;6.512;2023-08-06T00:11:31;98938.55;;;15.58;77.65
65394;BME280;52002;49.760;6.512;2023-08-06T00:13:57;98936.43;;;15.61;77.64
65394;BME280;52002;49.760;6.512;2023-08-06T00:16:22;98935.35;;;15.65;77.71
65394;BME280;52002;49.760;6.512;2023-08-06T00:18:47;98935.39;;;15.69;77.77
65394;BME280;52002;49.760;6.512;2023-08-06T00:21:13;98934.33;;;15.71;77.74
65394;BME280;52002;49.760;6.512;2023-08-06T00:23:39;98930.05;;;15.72;77.67
65394;BME280;52002;49.760;6.512;2023-08-06T00:26:05;98930.78;;;15.69;77.59
65394;BME280;52002;49.760;6.512;2023-08-06T00:28:30;98928.94;;;15.67;77.61
65394;BME280;52002;49.760;6.512;2023-08-06T00:30:56;98924.71;;;15.66;77.80
65394;BME280;52002;49.760;6.512;2023-08-06T00:33:22;98920.56;;;15.69;77.90
65394;BME280;52002;49.760;6.512;2023-08-06T00:35:48;98918.88;;;15.71;77.78
65394;BME280;52002;49.760;6.512;2023-08-06T00:38:13;98920.36;;;15.70;77.88
65394;BME280;52002;49.760;6.512;2023-08-06T00:40:38;98914.69;;;15.71;78.00
65394;BME280;52002;49.760;6.512;2023-08-06T00:43:04;98913.77;;;15.73;78.02
65394;BME280;52002;49.760;6.512;2023-08-06T00:45:29;98910.23;;;15.74;78.05
65394;BME280;52002;49.760;6.512;2023-08-06T00:47:56;98908.17;;;15.74;78.19
65394;BME280;52002;49.760;6.512;2023-08-06T00:50:21;98907.15;;;15.78;78.17
65394;BME280;52002;49.760;6.512;2023-08-06T00:52:51;98905.19;;;15.80;78.05
65394;BME280;52002;49.760;6.512;2023-08-06T00:55:17;98900.96;;;15.80;78.00
65394;BME280;52002;49.760;6.512;2023-08-06T00:57:42;98899.31;;;15.79;78.03
65394;BME280;52002;49.760;6.512;2023-08-06T01:00:08;98901.55;;;15.81;78.20
65394;BME280;52002;49.760;6.512;2023-08-06T01:02:34;98900.35;;;15.82;78.26
65394;BME280;52002;49.760;6.512;2023-08-06T01:04:59;98902.31;;;15.82;78.20
65394;BME280;52002;49.760;6.512;2023-08-06T01:15:58;98906.02;;;15.81;78.22
65394;BME280;52002;49.760;6.512;2023-08-06T01:18:26;98905.69;;;15.81;78.21
65394;BME280;52002;49.760;6.512;2023-08-06T01:20:52;98900.84;;;15.80;78.25
65394;BME280;52002;49.760;6.512;2023-08-06T01:23:18;98908.41;;;15.80;78.06
65394;BME280;52002;49.760;6.512;2023-08-06T01:31:25;98896.73;;;15.71;78.15
65394;BME280;52002;49.760;6.512;2023-08-06T01:33:52;98894.69;;;15.68;78.27
65394;BME280;52002;49.760;6.512;2023-08-06T01:36:19;98897.84;;;15.64;78.32
65394;BME280;52002;49.760;6.512;2023-08-06T01:38:45;98902.45;;;15.61;78.41
65394;BME280;52002;49.760;6.512;2023-08-06T01:41:11;98898.30;;;15.60;78.47
65394;BME280;52002;49.760;6.512;2023-08-06T01:43:36;98901.79;;;15.60;78.54
65394;BME280;52002;49.760;6.512;2023-08-06T01:46:01;98898.92;;;15.59;78.58
65394;BME280;52002;49.760;6.512;2023-08-06T01:48:27;98897.89;;;15.59;78.51
65394;BME280;52002;49.760;6.512;2023-08-06T01:50:52;98898.02;;;15.58;78.51
65394;BME280;52002;49.760;6.512;2023-08-06T01:53:17;98895.83;;;15.59;78.63
65394;BME280;52002;49.760;6.512;2023-08-06T01:55:47;98893.83;;;15.59;78.72
65394;BME280;52002;49.760;6.512;2023-08-06T01:58:13;98890.73;;;15.60;78.78
65394;BME280;52002;49.760;6.512;2023-08-06T02:00:38;98892.73;;;15.62;78.68
65394;BME280;52002;49.760;6.512;2023-08-06T02:03:03;98893.22;;;15.60;78.54
65394;BME280;52002;49.760;6.512;2023-08-06T02:05:29;98891.27;;;15.59;78.56
65394;BME280;52002;49.760;6.512;2023-08-06T02:07:54;98887.98;;;15.58;78.64
65394;BME280;52002;49.760;6.512;2023-08-06T02:10:19;98887.60;;;15.57;78.68
65394;BME280;52002;49.760;6.512;2023-08-06T02:12:44;98888.92;;;15.56;78.68
65394;BME280;52002;49.760;6.512;2023-08-06T02:15:10;98887.89;;;15.56;78.70
65394;BME280;52002;49.760;6.512;2023-08-06T02:17:35;98888.15;;;15.57;78.69
65394;BME280;52002;49.760;6.512;2023-08-06T02:20:00;98886.66;;;15.57;78.71
65394;BME280;52002;49.760;6.512;2023-08-06T02:22:26;98886.84;;;15.56;78.67
65394;BME280;52002;49.760;6.512;2023-08-06T02:24:52;98888.71;;;15.55;78.72
65394;BME280;52002;49.760;6.512;2023-08-06T02:27:17;98889.45;;;15.56;78.74
65394;BME280;52002;49.760;6.512;2023-08-06T02:29:42;98885.20;;;15.56;78.75
65394;BME280;52002;49.760;6.512;2023-08-06T02:32:07;98883.04;;;15.55;78.72
65394;BME280;52002;49.760;6.512;2023-08-06T02:34:33;98884.15;;;15.54;78.75
65394;BME280;52002;49.760;6.512;2023-08-06T02:36:58;98879.73;;;15.53;78.70
65394;BME280;52002;49.760;6.512;2023-08-06T02:39:23;98876.66;;;15.53;78.79
65394;BME280;52002;49.760;6.512;2023-08-06T02:41:49;98874.38;;;15.51;78.80
65394;BME280;52002;49.760;6.512;2023-08-06T02:44:14;98869.87;;;15.53;79.00
65394;BME280;52002;49.760;6.512;2023-08-06T02:46:39;98870.46;;;15.55;78.98
65394;BME280;52002;49.760;6.512;2023-08-06T02:49:06;98868.17;;;15.54;79.03
65394;BME280;52002;49.760;6.512;2023-08-06T02:51:31;98866.45;;;15.56;79.12
65394;BME280;52002;49.760;6.512;2023-08-06T02:53:56;98864.84;;;15.56;78.94
65394;BME280;52002;49.760;6.512;2023-08-06T02:56:22;98865.29;;;15.56;78.91
65394;BME280;52002;49.760;6.512;2023-08-06T02:58:47;98867.85;;;15.56;78.90
65394;BME280;52002;49.760;6.512;2023-08-06T03:01:13;98862.14;;;15.54;78.93
65394;BME280;52002;49.760;6.512;2023-08-06T03:03:39;98859.48;;;15.54;78.95
65394;BME280;52002;49.760;6.512;2023-08-06T03:06:04;98858.88;;;15.53;79.04
65394;BME280;52002;49.760;6.512;2023-08-06T03:08:30;98857.37;;;15.51;78.81
65394;BME280;52002;49.760;6.512;2023-08-06T03:10:55;98857.04;;;15.47;78.95
65394;BME280;52002;49.760;6.512;2023-08-06T03:13:20;98856.50;;;15.46;78.92
65394;BME280;52002;49.760;6.512;2023-08-06T03:15:59;98854.64;;;15.46;78.96
65394;BME280;52002;49.760;6.512;2023-08-06T03:18:25;98857.21;;;15.45;79.09
65394;BME280;52002;49.760;6.512;2023-08-06T03:20:54;98853.02;;;15.47;79.18
65394;BME280;52002;49.760;6.512;2023-08-06T03:23:19;98853.16;;;15.47;79.00
65394;BME280;52002;49.760;6.512;2023-08-06T03:25:45;98851.67;;;15.49;79.05
65394;BME280;52002;49.760;6.512;2023-08-06T03:28:10;98851.23;;;15.48;78.99
65394;BME280;52002;49.760;6.512;2023-08-06T03:30:36;98849.80;;;15.47;79.00
65394;BME280;52002;49.760;6.512;2023-08-06T03:33:01;98851.13;;;15.46;79.01
65394;BME280;52002;49.760;6.512;2023-08-06T03:35:27;98854.30;;;15.47;79.10
65394;BME280;52002;49.760;6.512;2023-08-06T03:37:52;98850.00;;;15.44;78.95
65394;BME280;52002;49.760;6.512;2023-08-06T03:40:17;98849.85;;;15.42;79.01
65394;BME280;52002;49.760;6.512;2023-08-06T03:42:43;98846.39;;;15.43;78.95
65394;BME280;52002;49.760;6.512;2023-08-06T03:45:08;98848.55;;;15.44;79.03
65394;BME280;52002;49.760;6.512;2023-08-06T03:47:34;98844.59;;;15.46;79.08
65394;BME280;52002;49.760;6.512;2023-08-06T03:49:59;98845.52;;;15.48;79.16
65394;BME280;52002;49.760;6.512;2023-08-06T03:52:24;98841.08;;;15.48;79.17
65394;BME280;52002;49.760;6.512;2023-08-06T03:54:50;98842.29;;;15.48;79.17
65394;BME280;52002;49.760;6.512;2023-08-06T03:57:15;98840.07;;;15.50;79.14
65394;BME280;52002;49.760;6.512;2023-08-06T03:59:41;98845.13;;;15.51;79.19
65394;BME280;52002;49.760;6.512;2023-08-06T04:02:06;98845.95;;;15.52;79.15
65394;BME280;52002;49.760;6.512;2023-08-06T04:04:31;98845.42;;;15.52;79.09
65394;BME280;52002;49.760;6.512;2023-08-06T04:06:57;98840.53;;;15.52;79.04
65394;BME280;52002;49.760;6.512;2023-08-06T04:09:22;98846.38;;;15.54;79.09
65394;BME280;52002;49.760;6.512;2023-08-06T04:11:47;98844.89;;;15.56;79.14
65394;BME280;52002;49.760;6.512;2023-08-06T04:14:13;98848.05;;;15.58;79.04
65394;BME280;52002;49.760;6.512;2023-08-06T04:16:38;98847.69;;;15.59;79.07
65394;BME280;52002;49.760;6.512;2023-08-06T04:19:03;98851.08;;;15.59;78.96
65394;BME280;52002;49.760;6.512;2023-08-06T04:21:28;98852.52;;;15.58;78.94
65394;BME280;52002;49.760;6.512;2023-08-06T04:23:55;98855.45;;;15.57;78.93
65394;BME280;52002;49.760;6.512;2023-08-06T04:26:21;98854.83;;;15.57;78.91
65394;BME280;52002;49.760;6.512;2023-08-06T04:28:46;98858.89;;;15.57;78.88
65394;BME280;52002;49.760;6.512;2023-08-06T04:31:11;98858.20;;;15.55;78.83
65394;BME280;52002;49.760;6.512;2023-08-06T04:33:37;98858.04;;;15.55;78.97
65394;BME280;52002;49.760;6.512;2023-08-06T04:36:02;98856.81;;;15.56;79.12
65394;BME280;52002;49.760;6.512;2023-08-06T04:38:28;98858.78;;;15.59;79.00
65394;BME280;52002;49.760;6.512;2023-08-06T04:40:53;98856.27;;;15.61;79.00
65394;BME280;52002;49.760;6.512;2023-08-06T04:43:18;98852.30;;;15.61;78.93
65394;BME280;52002;49.760;6.512;2023-08-06T04:45:48;98854.48;;;15.59;78.92
65394;BME280;52002;49.760;6.512;2023-08-06T04:48:14;98853.86;;;15.60;79.11
65394;BME280;52002;49.760;6.512;2023-08-06T04:50:44;98857.94;;;15.62;79.13
65394;BME280;52002;49.760;6.512;2023-08-06T04:53:09;98855.20;;;15.63;79.04
65394;BME280;52002;49.760;6.512;2023-08-06T04:55:35;98856.45;;;15.65;79.04
65394;BME280;52002;49.760;6.512;2023-08-06T04:58:00;98860.80;;;15.66;79.04
65394;BME280;52002;49.760;6.512;2023-08-06T05:00:25;98862.41;;;15.69;79.10
65394;BME280;52002;49.760;6.512;2023-08-06T05:02:51;98868.10;;;15.75;79.01
65394;BME280;52002;49.760;6.512;2023-08-06T05:05:16;98867.62;;;15.77;78.99
65394;BME280;52002;49.760;6.512;2023-08-06T05:07:41;98873.84;;;15.79;78.80
65394;BME280;52002;49.760;6.512;2023-08-06T05:10:07;98871.53;;;15.82;78.74
65394;BME280;52002;49.760;6.512;2023-08-06T05:12:33;98875.38;;;15.84;78.66
65394;BME280;52002;49.760;6.512;2023-08-06T05:14:58;98880.54;;;15.86;78.53
65394;BME280;52002;49.760;6.512;2023-08-06T05:17:23;98881.30;;;15.88;78.40
65394;BME280;52002;49.760;6.512;2023-08-06T05:19:49;98882.73;;;15.94;78.51
65394;BME280;52002;49.760;6.512;2023-08-06T05:22:15;98886.11;;;16.00;78.27
65394;BME280;52002;49.760;6.512;2023-08-06T05:24:40;98885.55;;;16.04;78.12
65394;BME280;52002;49.760;6.512;2023-08-06T05:27:05;98884.79;;;16.13;78.15
65394;BME280;52002;49.760;6.512;2023-08-06T05:29:30;98890.86;;;16.24;78.00
65394;BME280;52002;49.760;6.512;2023-08-06T05:31:56;98890.54;;;16.27;77.94
65394;BME280;52002;49.760;6.512;2023-08-06T05:34:21;98893.11;;;16.31;77.89
65394;BME280;52002;49.760;6.512;2023-08-06T05:36:46;98890.29;;;16.37;77.61
65394;BME280;52002;49.760;6.512;2023-08-06T05:39:12;98888.80;;;16.41;77.48
65394;BME280;52002;49.760;6.512;2023-08-06T05:41:37;98891.15;;;16.51;77.10
65394;BME280;52002;49.760;6.512;2023-08-06T05:44:02;98891.73;;;16.64;76.97
65394;BME280;52002;49.760;6.512;2023-08-06T05:46:28;98890.84;;;16.70;76.62
65394;BME280;52002;49.760;6.512;2023-08-06T05:48:53;98886.82;;;16.76;76.47
65394;BME280;52002;49.760;6.512;2023-08-06T05:51:18;98887.46;;;16.87;76.16
65394;BME280;52002;49.760;6.512;2023-08-06T05:53:44;98891.50;;;16.94;76.00
65394;BME280;52002;49.760;6.512;2023-08-06T05:56:11;98892.86;;;16.90;75.95
65394;BME280;52002;49.760;6.512;2023-08-06T05:58:36;98893.64;;;16.85;75.95
65394;BME280;52002;49.760;6.512;2023-08-06T06:01:01;98889.08;;;16.82;75.68
65394;BME280;52002;49.760;6.512;2023-08-06T06:03:27;98893.30;;;16.82;75.63
65394;BME280;52002;49.760;6.512;2023-08-06T06:05:52;98894.14;;;16.81;75.77
65394;BME280;52002;49.760;6.512;2023-08-06T06:08:18;98894.95;;;16.79;75.72
65394;BME280;52002;49.760;6.512;2023-08-06T06:10:43;98898.34;;;16.74;75.78
65394;BME280;52002;49.760;6.512;2023-08-06T06:13:08;98891.33;;;16.70;75.89
65394;BME280;52002;49.760;6.512;2023-08-06T06:15:34;98897.30;;;16.67;75.90
65394;BME280;52002;49.760;6.512;2023-08-06T06:17:59;98906.69;;;16.63;76.01
65394;BME280;52002;49.760;6.512;2023-08-06T06:20:24;98910.79;;;16.58;75.98
65394;BME280;52002;49.760;6.512;2023-08-06T06:22:50;98911.53;;;16.54;76.06
65394;BME280;52002;49.760;6.512;2023-08-06T06:25:15;98908.79;;;16.56;76.17
65394;BME280;52002;49.760;6.512;2023-08-06T06:27:40;98912.98;;;16.56;75.91
65394;BME280;52002;49.760;6.512;2023-08-06T06:30:06;98914.88;;;16.52;75.95
65394;BME280;52002;49.760;6.512;2023-08-06T06:32:32;98911.77;;;16.57;75.86
65394;BME280;52002;49.760;6.512;2023-08-06T06:34:57;98918.04;;;16.60;75.73
65394;BME280;52002;49.760;6.512;2023-08-06T06:37:24;98917.48;;;16.63;75.79
65394;BME280;52002;49.760;6.512;2023-08-06T06:39:49;98920.46;;;16.65;75.54
65394;BME280;52002;49.760;6.512;2023-08-06T06:42:14;98925.60;;;16.64;75.30
65394;BME280;52002;49.760;6.512;2023-08-06T06:44:40;98927.32;;;16.59;75.13
65394;BME280;52002;49.760;6.512;2023-08-06T06:47:05;98924.30;;;16.56;75.25
65394;BME280;52002;49.760;6.512;2023-08-06T06:49:31;98924.49;;;16.53;74.96
65394;BME280;52002;49.760;6.512;2023-08-06T06:51:56;98931.08;;;16.52;74.96
65394;BME280;52002;49.760;6.512;2023-08-06T06:54:22;98930.51;;;16.53;74.71
65394;BME280;52002;49.760;6.512;2023-08-06T06:56:47;98929.77;;;16.53;74.58
65394;BME280;52002;49.760;6.512;2023-08-06T06:59:12;98935.89;;;16.51;74.37
65394;BME280;52002;49.760;6.512;2023-08-06T07:01:37;98938.85;;;16.46;74.67
65394;BME280;52002;49.760;6.512;2023-08-06T07:04:03;98941.11;;;16.52;74.76
65394;BME280;52002;49.760;6.512;2023-08-06T07:06:30;98943.34;;;16.50;74.59
65394;BME280;52002;49.760;6.512;2023-08-06T07:08:56;98953.85;;;16.47;74.30
65394;BME280;52002;49.760;6.512;2023-08-06T07:11:21;98959.27;;;16.46;74.05
65394;BME280;52002;49.760;6.512;2023-08-06T07:13:46;98956.73;;;16.52;73.81
65394;BME280;52002;49.760;6.512;2023-08-06T07:16:11;98956.84;;;16.57;73.40
65394;BME280;52002;49.760;6.512;2023-08-06T07:18:37;98965.25;;;16.61;73.34
65394;BME280;52002;49.760;6.512;2023-08-06T07:21:02;98961.29;;;16.63;73.78
65394;BME280;52002;49.760;6.512;2023-08-06T07:23:28;98967.08;;;16.68;73.73
65394;BME280;52002;49.760;6.512;2023-08-06T07:25:53;98972.09;;;16.68;73.42
65394;BME280;52002;49.760;6.512;2023-08-06T07:28:19;98973.33;;;16.67;73.59
65394;BME280;52002;49.760;6.512;2023-08-06T07:30:44;98980.98;;;16.65;74.02
65394;BME280;52002;49.760;6.512;2023-08-06T07:33:10;98985.38;;;16.63;74.01
65394;BME280;52002;49.760;6.512;2023-08-06T07:35:37;98984.73;;;16.57;73.69
65394;BME280;52002;49.760;6.512;2023-08-06T07:38:03;98996.90;;;16.46;74.05
65394;BME280;52002;49.760;6.512;2023-08-06T07:40:28;99002.63;;;16.38;74.01
65394;BME280;52002;49.760;6.512;2023-08-06T07:42:54;99016.63;;;16.35;74.30
65394;BME280;52002;49.760;6.512;2023-08-06T07:45:20;99026.39;;;16.34;74.50
65394;BME280;52002;49.760;6.512;2023-08-06T07:47:45;99036.21;;;16.35;74.68
65394;BME280;52002;49.760;6.512;2023-08-06T07:50:10;99034.80;;;16.33;74.80
65394;BME280;52002;49.760;6.512;2023-08-06T07:52:36;99041.70;;;16.37;74.51
65394;BME280;52002;49.760;6.512;2023-08-06T07:55:01;99045.35;;;16.39;73.82
65394;BME280;52002;49.760;6.512;2023-08-06T07:57:33;99045.91;;;16.33;74.12
65394;BME280;52002;49.760;6.512;2023-08-06T08:00:00;99047.52;;;16.28;74.41
65394;BME280;52002;49.760;6.512;2023-08-06T08:02:25;99058.36;;;16.24;74.42
65394;BME280;52002;49.760;6.512;2023-08-06T08:04:50;99063.57;;;16.23;74.67
65394;BME280;52002;49.760;6.512;2023-08-06T08:07:16;99070.80;;;16.28;74.70
65394;BME280;52002;49.760;6.512;2023-08-06T08:09:41;99071.67;;;16.38;74.63
65394;BME280;52002;49.760;6.512;2023-08-06T08:12:07;99076.43;;;16.53;74.61
65394;BME280;52002;49.760;6.512;2023-08-06T08:14:32;99077.36;;;16.71;74.11
65394;BME280;52002;49.760;6.512;2023-08-06T08:17:01;99079.97;;;16.87;73.49
65394;BME280;52002;49.760;6.512;2023-08-06T08:19:28;99080.41;;;17.02;73.05
65394;BME280;52002;49.760;6.512;2023-08-06T08:21:53;99083.38;;;17.12;73.27
65394;BME280;52002;49.760;6.512;2023-08-06T08:24:19;99084.61;;;17.18;73.22
65394;BME280;52002;49.760;6.512;2023-08-06T08:26:45;99093.34;;;17.23;72.67
65394;BME280;52002;49.760;6.512;2023-08-06T08:29:10;99099.36;;;17.22;72.53
65394;BME280;52002;49.760;6.512;2023-08-06T08:31:36;99099.98;;;17.23;72.87
65394;BME280;52002;49.760;6.512;2023-08-06T08:34:05;99100.23;;;17.25;72.87
65394;BME280;52002;49.760;6.512;2023-08-06T08:36:31;99111.23;;;17.29;72.75
65394;BME280;52002;49.760;6.512;2023-08-06T08:38:56;99114.27;;;17.30;72.59
65394;BME280;52002;49.760;6.512;2023-08-06T08:41:22;99119.45;;;17.29;72.42
65394;BME280;52002;49.760;6.512;2023-08-06T08:43:50;99120.31;;;17.28;72.53
65394;BME280;52002;49.760;6.512;2023-08-06T08:46:18;99123.30;;;17.27;72.24
65394;BME280;52002;49.760;6.512;2023-08-06T08:48:44;99129.25;;;17.25;72.08
65394;BME280;52002;49.760;6.512;2023-08-06T08:51:11;99135.00;;;17.25;71.96
65394;BME280;52002;49.760;6.512;2023-08-06T08:53:38;99134.13;;;17.14;71.91
65394;BME280;52002;49.760;6.512;2023-08-06T08:56:05;99139.86;;;17.05;71.92
65394;BME280;52002;49.760;6.512;2023-08-06T08:58:31;99143.84;;;16.99;72.30
65394;BME280;52002;49.760;6.512;2023-08-06T09:00:57;99147.45;;;16.94;72.43
65394;BME280;52002;49.760;6.512;2023-08-06T09:03:23;99149.16;;;16.84;72.14
65394;BME280;52002;49.760;6.512;2023-08-06T09:05:51;99152.52;;;16.76;72.23
65394;BME280;52002;49.760;6.512;2023-08-06T09:08:21;99160.91;;;16.70;72.19
65394;BME280;52002;49.760;6.512;2023-08-06T09:10:50;99163.17;;;16.69;72.04
65394;BME280;52002;49.760;6.512;2023-08-06T09:13:16;99174.43;;;16.71;72.44
65394;BME280;52002;49.760;6.512;2023-08-06T09:15:41;99179.13;;;16.80;72.11
65394;BME280;52002;49.760;6.512;2023-08-06T09:18:10;99189.57;;;17.15;71.65
65394;BME280;52002;49.760;6.512;2023-08-06T09:20:37;99202.73;;;17.60;71.26
65394;BME280;52002;49.760;6.512;2023-08-06T09:23:09;99199.99;;;18.00;70.01
65394;BME280;52002;49.760;6.512;2023-08-06T09:25:38;99203.01;;;18.33;69.12
65394;BME280;52002;49.760;6.512;2023-08-06T09:28:06;99203.59;;;18.64;68.60
65394;BME280;52002;49.760;6.512;2023-08-06T09:30:34;99201.73;;;18.90;67.52
65394;BME280;52002;49.760;6.512;2023-08-06T09:33:00;99206.52;;;19.15;67.04
65394;BME280;52002;49.760;6.512;2023-08-06T09:35:29;99213.81;;;19.26;65.72
65394;BME280;52002;49.760;6.512;2023-08-06T09:37:55;99225.08;;;19.31;65.53
65394;BME280;52002;49.760;6.512;2023-08-06T09:40:28;99227.55;;;19.37;64.58
65394;BME280;52002;49.760;6.512;2023-08-06T09:42:54;99231.98;;;19.41;64.41
65394;BME280;52002;49.760;6.512;2023-08-06T09:45:20;99234.95;;;19.41;64.21
65394;BME280;52002;49.760;6.512;2023-08-06T09:47:48;99244.00;;;19.39;64.27
65394;BME280;52002;49.760;6.512;2023-08-06T09:50:20;99249.63;;;19.34;63.45
65394;BME280;52002;49.760;6.512;2023-08-06T09:52:47;99255.11;;;19.20;63.16
65394;BME280;52002;49.760;6.512;2023-08-06T09:55:13;99252.51;;;19.14;64.26
65394;BME280;52002;49.760;6.512;2023-08-06T09:57:40;99255.25;;;19.13;64.39
65394;BME280;52002;49.760;6.512;2023-08-06T10:00:07;99252.02;;;19.13;63.60
65394;BME280;52002;49.760;6.512;2023-08-06T10:02:35;99260.94;;;18.98;63.49
65394;BME280;52002;49.760;6.512;2023-08-06T10:05:02;99261.02;;;18.84;63.82
65394;BME280;52002;49.760;6.512;2023-08-06T10:07:29;99265.41;;;18.83;64.43
65394;BME280;52002;49.760;6.512;2023-08-06T10:09:55;99270.11;;;18.82;64.66
65394;BME280;52002;49.760;6.512;2023-08-06T10:12:22;99276.33;;;18.86;64.66
65394;BME280;52002;49.760;6.512;2023-08-06T10:14:49;99288.80;;;18.80;64.23
65394;BME280;52002;49.760;6.512;2023-08-06T10:17:16;99294.00;;;18.67;64.39
65394;BME280;52002;49.760;6.512;2023-08-06T10:19:42;99288.63;;;18.68;64.29
65394;BME280;52002;49.760;6.512;2023-08-06T10:22:14;99289.46;;;18.63;64.21
65394;BME280;52002;49.760;6.512;2023-08-06T10:27:29;99293.04;;;18.84;64.95
65394;BME280;52002;49.760;6.512;2023-08-06T10:29:55;99291.06;;;19.04;64.78
65394;BME280;52002;49.760;6.512;2023-08-06T10:32:20;99299.95;;;19.15;64.34
65394;BME280;52002;49.760;6.512;2023-08-06T10:34:59;99300.95;;;19.17;64.18
65394;BME280;52002;49.760;6.512;2023-08-06T10:37:44;99302.86;;;19.27;64.05
65394;BME280;52002;49.760;6.512;2023-08-06T10:40:10;99300.70;;;19.35;63.55
65394;BME280;52002;49.760;6.512;2023-08-06T10:42:35;99307.38;;;19.49;63.52
65394;BME280;52002;49.760;6.512;2023-08-06T10:45:18;99304.73;;;19.59;63.59
65394;BME280;52002;49.760;6.512;2023-08-06T10:47:44;99307.48;;;19.89;63.58
65394;BME280;52002;49.760;6.512;2023-08-06T10:50:16;99310.71;;;20.12;63.71
65394;BME280;52002;49.760;6.512;2023-08-06T10:52:46;99312.03;;;20.38;63.27
65394;BME280;52002;49.760;6.512;2023-08-06T10:55:12;99316.36;;;20.58;62.28
65394;BME280;52002;49.760;6.512;2023-08-06T10:57:38;99308.20;;;20.81;61.98
65394;BME280;52002;49.760;6.512;2023-08-06T11:00:05;99309.29;;;21.06;61.04
65394;BME280;52002;49.760;6.512;2023-08-06T11:02:35;99309.24;;;21.12;59.56
65394;BME280;52002;49.760;6.512;2023-08-06T11:05:08;99327.92;;;20.88;60.12
65394;BME280;52002;49.760;6.512;2023-08-06T11:07:34;99336.15;;;20.34;60.50
65394;BME280;52002;49.760;6.512;2023-08-06T11:10:05;99332.70;;;19.99;60.86
65394;BME280;52002;49.760;6.512;2023-08-06T11:12:31;99338.14;;;20.15;61.09
65394;BME280;52002;49.760;6.512;2023-08-06T11:14:57;99339.15;;;20.51;61.50
65394;BME280;52002;49.760;6.512;2023-08-06T11:17:22;99332.22;;;20.89;61.27
65394;BME280;52002;49.760;6.512;2023-08-06T11:19:47;99337.55;;;21.30;61.13
65394;BME280;52002;49.760;6.512;2023-08-06T11:22:14;99334.66;;;21.58;59.91
65394;BME280;52002;49.760;6.512;2023-08-06T11:24:40;99322.34;;;21.73;59.47
65394;BME280;52002;49.760;6.512;2023-08-06T11:27:12;99326.15;;;21.80;58.94
65394;BME280;52002;49.760;6.512;2023-08-06T11:29:40;99326.84;;;21.81;58.24
65394;BME280;52002;49.760;6.512;2023-08-06T11:32:07;99331.98;;;21.75;58.36
65394;BME280;52002;49.760;6.512;2023-08-06T11:34:33;99347.31;;;21.58;57.95
65394;BME280;52002;49.760;6.512;2023-08-06T11:36:58;99349.67;;;21.32;58.06
65394;BME280;52002;49.760;6.512;2023-08-06T11:39:24;99360.81;;;21.20;58.26
65394;BME280;52002;49.760;6.512;2023-08-06T11:41:49;99349.05;;;21.37;57.94
65394;BME280;52002;49.760;6.512;2023-08-06T11:44:15;99351.93;;;21.68;57.58
65394;BME280;52002;49.760;6.512;2023-08-06T11:46:53;99350.80;;;21.91;56.80
65394;BME280;52002;49.760;6.512;2023-08-06T11:49:37;99344.17;;;22.07;56.57
65394;BME280;52002;49.760;6.512;2023-08-06T11:52:19;99341.67;;;22.16;56.22
65394;BME280;52002;49.760;6.512;2023-08-06T11:54:46;99355.77;;;22.09;56.47
65394;BME280;52002;49.760;6.512;2023-08-06T11:57:12;99349.46;;;21.98;56.16
65394;BME280;52002;49.760;6.512;2023-08-06T11:59:39;99377.37;;;21.78;55.51
65394;BME280;52002;49.760;6.512;2023-08-06T12:02:08;99372.83;;;21.45;54.78
65394;BME280;52002;49.760;6.512;2023-08-06T12:04:57;99386.73;;;21.21;54.92
65394;BME280;52002;49.760;6.512;2023-08-06T12:07:29;99372.85;;;21.42;55.12
65394;BME280;52002;49.760;6.512;2023-08-06T12:09:55;99368.58;;;21.72;55.19
65394;BME280;52002;49.760;6.512;2023-08-06T12:12:21;99363.16;;;21.92;54.66
65394;BME280;52002;49.760;6.512;2023-08-06T12:14:46;99373.09;;;21.90;54.18
65394;BME280;52002;49.760;6.512;2023-08-06T12:17:11;99369.41;;;21.68;54.54
65394;BME280;52002;49.760;6.512;2023-08-06T12:19:37;99371.67;;;21.54;54.47
65394;BME280;52002;49.760;6.512;2023-08-06T12:22:02;99372.03;;;21.50;54.46
65394;BME280;52002;49.760;6.512;2023-08-06T12:24:29;99377.89;;;21.31;54.41
65394;BME280;52002;49.760;6.512;2023-08-06T12:26:57;99379.78;;;21.24;54.25
65394;BME280;52002;49.760;6.512;2023-08-06T12:29:24;99381.46;;;21.23;53.83
65394;BME280;52002;49.760;6.512;2023-08-06T12:31:50;99388.59;;;21.30;54.35
65394;BME280;52002;49.760;6.512;2023-08-06T12:34:15;99405.80;;;21.28;55.02
65394;BME280;52002;49.760;6.512;2023-08-06T12:36:40;99406.36;;;21.17;54.81
65394;BME280;52002;49.760;6.512;2023-08-06T12:39:05;99410.84;;;21.03;54.12
65394;BME280;52002;49.760;6.512;2023-08-06T12:41:31;99421.89;;;20.68;54.22
65394;BME280;52002;49.760;6.512;2023-08-06T12:43:56;99407.36;;;20.31;54.37
65394;BME280;52002;49.760;6.512;2023-08-06T12:46:21;99408.73;;;20.17;55.66
65394;BME280;52002;49.760;6.512;2023-08-06T12:48:47;99416.69;;;20.24;55.27
65394;BME280;52002;49.760;6.512;2023-08-06T12:51:13;99409.93;;;20.41;55.32
65394;BME280;52002;49.760;6.512;2023-08-06T12:53:39;99410.85;;;20.65;54.92
65394;BME280;52002;49.760;6.512;2023-08-06T12:56:04;99418.45;;;20.69;55.34
65394;BME280;52002;49.760;6.512;2023-08-06T12:58:30;99412.92;;;20.54;54.77
65394;BME280;52002;49.760;6.512;2023-08-06T13:00:56;99415.05;;;20.29;55.19
65394;BME280;52002;49.760;6.512;2023-08-06T13:03:21;99420.21;;;20.17;55.82
65394;BME280;52002;49.760;6.512;2023-08-06T13:05:47;99425.84;;;20.14;56.44
65394;BME280;52002;49.760;6.512;2023-08-06T13:08:12;99425.89;;;20.00;57.01
65394;BME280;52002;49.760;6.512;2023-08-06T13:10:37;99447.84;;;19.77;57.04
65394;BME280;52002;49.760;6.512;2023-08-06T13:13:03;99462.36;;;19.50;58.20